createdAt,value
2023-03-04T00:08:58.587Z,0
2023-03-04T00:14:17.444Z,0
2023-03-04T00:19:36.894Z,0
2023-03-04T00:24:56.736Z,0
2023-03-04T00:35:36.326Z,0
2023-03-04T00:40:55.262Z,0
2023-03-04T00:51:33.937Z,0
2023-03-04T01:07:33.968Z,0
2023-03-04T01:23:29.650Z,0
2023-03-04T01:34:07.981Z,0
2023-03-04T01:39:27.878Z,0
2023-03-04T01:50:06.556Z,0
2023-03-04T02:00:44.648Z,0
2023-03-04T02:06:04.053Z,0
2023-03-04T02:16:42.743Z,0
2023-03-04T02:22:02.285Z,0
2023-03-04T02:27:22.162Z,0
2023-03-04T02:38:00.385Z,0
2023-03-04T02:43:19.602Z,0
2023-03-04T02:53:58.133Z,0
2023-03-04T02:59:17.577Z,0
2023-03-04T03:09:55.540Z,0
2023-03-04T03:25:54.884Z,0
2023-03-04T03:36:34.638Z,0
2023-03-04T03:41:53.961Z,0
2023-03-04T03:52:32.918Z,0
2023-03-04T04:08:30.390Z,0
2023-03-04T04:19:08.841Z,0
2023-03-04T04:24:28.574Z,0
2023-03-04T04:35:07.164Z,0
2023-03-04T04:51:06.078Z,0
2023-03-04T05:01:44.273Z,0
2023-03-04T05:07:03.802Z,0
2023-03-04T05:17:42.726Z,0
2023-03-04T05:23:02.045Z,0
2023-03-04T05:33:41.886Z,0
2023-03-04T05:44:18.905Z,0
2023-03-04T05:49:38.234Z,0
2023-03-04T06:00:16.270Z,3
2023-03-04T06:05:35.831Z,9
2023-03-04T06:16:14.094Z,19.11
2023-03-04T06:26:52.100Z,20.03
2023-03-04T06:32:11.801Z,21.69
2023-03-04T06:42:50.319Z,23.68
2023-03-04T06:48:09.911Z,24.25
2023-03-04T06:58:48.750Z,29.27
2023-03-04T07:09:26.805Z,31.77
2023-03-04T07:14:46.020Z,28.09
2023-03-04T07:25:24.518Z,31.99
2023-03-04T07:41:22.590Z,37.64
2023-03-04T07:57:20.388Z,43.6
2023-03-04T08:07:59.217Z,44.47
2023-03-04T08:13:18.063Z,41.3
2023-03-04T08:23:57.572Z,44.31
2023-03-04T08:29:16.638Z,43.47
2023-03-04T08:34:35.910Z,53.75
2023-03-04T08:39:55.361Z,53.67
2023-03-04T08:50:34.516Z,52.5
2023-03-04T09:01:12.682Z,61.94
2023-03-04T09:06:31.757Z,68.61
2023-03-04T09:17:10.536Z,62.99
2023-03-04T09:27:49.631Z,64.86
2023-03-04T09:33:09.087Z,69.23
2023-03-04T09:43:47.985Z,76.17
2023-03-04T09:59:45.614Z,76.92
2023-03-04T10:10:24.396Z,77.92
2023-03-04T10:15:43.308Z,78.54
2023-03-04T10:21:02.757Z,79.18
2023-03-04T10:26:23.194Z,77.55
2023-03-04T10:31:42.442Z,72.5
2023-03-04T10:42:21.244Z,73.55
2023-03-04T10:58:18.737Z,78.19
2023-03-04T11:04:03.683Z,77.47
2023-03-04T11:14:42.420Z,89.03
2023-03-04T11:30:39.986Z,103.78
2023-03-04T11:41:18.243Z,93.92
2023-03-04T11:46:37.257Z,103.66
2023-03-04T11:57:16.125Z,99
2023-03-04T12:07:54.413Z,91.99
2023-03-04T12:13:13.832Z,84.78
2023-03-04T12:23:52.279Z,79.8
2023-03-04T12:29:11.444Z,73.77
2023-03-04T12:39:49.556Z,75.73
2023-03-04T12:55:46.562Z,71.47
2023-03-04T13:06:25.388Z,66.69
2023-03-04T13:22:22.281Z,64.69
2023-03-04T13:38:20.264Z,63.78
2023-03-04T13:48:58.667Z,60.09
2023-03-04T13:54:18.212Z,57.4
2023-03-04T14:04:56.322Z,63.54
2023-03-04T14:20:53.109Z,63.83
2023-03-04T14:31:31.728Z,76.14
2023-03-04T14:36:50.616Z,83.17
2023-03-04T14:47:29.077Z,76.34
2023-03-04T14:52:56.881Z,75.94
2023-03-04T15:03:27.843Z,67.57
2023-03-04T15:14:07.731Z,53.75
2023-03-04T15:19:25.538Z,48.71
2023-03-04T15:24:45.359Z,46.88
2023-03-04T15:30:05.906Z,39.83
2023-03-04T15:35:25.061Z,39.34
2023-03-04T15:46:03.691Z,30.8
2023-03-04T15:51:22.775Z,30.75
2023-03-04T15:56:42.570Z,29.74
2023-03-04T16:07:21.174Z,26.93
2023-03-04T16:12:39.663Z,28.48
2023-03-04T16:17:58.512Z,25.34
2023-03-04T16:23:17.998Z,23.65
2023-03-04T16:39:14.923Z,19.16
2023-03-04T16:49:53.075Z,18.9
2023-03-04T17:05:49.918Z,7
2023-03-04T17:16:28.541Z,0
2023-03-04T17:21:47.820Z,0
2023-03-04T17:32:26.523Z,0
2023-03-04T17:37:45.234Z,0
2023-03-04T17:48:23.697Z,0
2023-03-04T17:59:02.389Z,0
2023-03-04T18:04:21.432Z,0
2023-03-04T18:15:00.556Z,0
2023-03-04T18:20:19.544Z,0
2023-03-04T18:30:58.788Z,0
2023-03-04T18:36:17.967Z,0
2023-03-04T18:46:56.594Z,0
2023-03-04T18:52:15.677Z,0
2023-03-04T18:57:35.264Z,0
2023-03-04T19:02:53.651Z,0
2023-03-04T19:08:12.972Z,0
2023-03-04T19:13:31.826Z,0
2023-03-04T19:29:29.996Z,0
2023-03-04T19:40:08.451Z,0
2023-03-04T19:45:27.770Z,0
2023-03-04T19:56:07.084Z,0
2023-03-04T20:01:26.771Z,0
2023-03-04T20:12:05.314Z,0
2023-03-04T20:22:43.429Z,0
2023-03-04T20:28:02.177Z,0
2023-03-04T20:38:40.822Z,0
2023-03-04T20:54:38.831Z,0
2023-03-04T21:05:16.988Z,0
2023-03-04T21:10:36.540Z,0
2023-03-04T21:15:55.981Z,0
2023-03-04T21:21:15.055Z,0
2023-03-04T21:26:33.988Z,0
2023-03-04T21:37:12.572Z,0
2023-03-04T21:47:51.331Z,0
2023-03-04T21:53:10.704Z,0
2023-03-04T22:03:49.113Z,0
2023-03-04T22:09:08.426Z,0
2023-03-04T22:19:47.148Z,0
2023-03-04T22:30:26.894Z,0
2023-03-04T22:35:46.397Z,0
2023-03-04T22:57:05.199Z,0
2023-03-04T23:02:24.171Z,0
2023-03-04T23:13:02.798Z,0
2023-03-04T23:23:41.771Z,0
2023-03-04T23:29:00.693Z,0
2023-03-04T23:39:39.618Z,0
2023-03-04T23:55:37.014Z,0
